createdAt,value
2022-10-10T00:01:27.801Z,9.59
2022-10-10T00:03:56.519Z,9.60
2022-10-10T00:06:28.100Z,9.59
2022-10-10T00:09:00.223Z,9.51
2022-10-10T00:11:28.495Z,9.47
2022-10-10T00:13:56.774Z,9.41
2022-10-10T00:16:25.146Z,9.46
2022-10-10T00:18:53.354Z,9.38
2022-10-10T00:21:21.538Z,9.31
2022-10-10T00:23:49.681Z,9.29
2022-10-10T00:26:19.682Z,9.30
2022-10-10T00:28:47.958Z,9.19
2022-10-10T00:31:16.426Z,9.10
2022-10-10T00:33:44.647Z,9.04
2022-10-10T00:36:15.178Z,8.91
2022-10-10T00:38:43.293Z,8.85
2022-10-10T00:41:11.610Z,8.80
2022-10-10T00:43:41.267Z,8.82
2022-10-10T00:46:09.669Z,8.90
2022-10-10T00:48:41.718Z,8.93
2022-10-10T00:51:13.014Z,8.93
2022-10-10T00:53:45.632Z,8.93
2022-10-10T00:56:15.309Z,8.87
2022-10-10T00:58:47.959Z,8.79
2022-10-10T01:01:16.376Z,8.83
2022-10-10T01:03:44.642Z,8.89
2022-10-10T01:06:13.180Z,8.86
2022-10-10T01:08:41.938Z,8.92
2022-10-10T01:11:35.176Z,8.87
2022-10-10T01:14:12.197Z,8.91
2022-10-10T01:16:46.950Z,8.88
2022-10-10T01:19:46.166Z,8.86
2022-10-10T01:22:26.981Z,8.80
2022-10-10T01:25:01.030Z,8.81
2022-10-10T01:27:33.367Z,8.83
2022-10-10T01:30:08.402Z,8.81
2022-10-10T01:32:44.096Z,8.81
2022-10-10T01:35:38.199Z,8.82
2022-10-10T01:38:26.601Z,8.70
2022-10-10T01:41:00.793Z,8.70
2022-10-10T01:43:29.013Z,8.75
2022-10-10T01:45:58.965Z,8.76
2022-10-10T01:48:30.797Z,8.78
2022-10-10T01:51:13.515Z,8.68
2022-10-10T01:53:47.571Z,8.70
2022-10-10T01:56:26.991Z,8.73
2022-10-10T01:59:11.637Z,8.76
2022-10-10T02:01:48.227Z,8.77
2022-10-10T02:04:22.667Z,8.81
2022-10-10T02:06:56.109Z,8.82
2022-10-10T02:09:30.043Z,8.88
2022-10-10T02:12:00.769Z,8.90
2022-10-10T02:14:35.251Z,8.91
2022-10-10T02:17:09.016Z,8.95
2022-10-10T02:19:39.005Z,8.93
2022-10-10T02:22:08.421Z,8.91
2022-10-10T02:24:36.799Z,8.94
2022-10-10T02:27:12.346Z,9.02
2022-10-10T02:29:44.369Z,9.05
2022-10-10T02:32:18.443Z,9.01
2022-10-10T02:34:51.700Z,9.02
2022-10-10T02:37:20.923Z,9.07
2022-10-10T02:39:52.467Z,9.11
2022-10-10T02:42:22.959Z,9.01
2022-10-10T02:44:52.308Z,9.01
2022-10-10T02:47:22.291Z,9.02
2022-10-10T02:49:50.467Z,8.98
2022-10-10T02:52:18.885Z,9.04
2022-10-10T02:54:47.114Z,9.06
2022-10-10T02:57:15.384Z,9.02
2022-10-10T02:59:43.676Z,9.01
2022-10-10T03:02:11.912Z,9.01
2022-10-10T03:04:42.177Z,8.95
2022-10-10T03:07:10.397Z,8.92
2022-10-10T03:09:38.573Z,9.06
2022-10-10T03:12:06.830Z,9.05
2022-10-10T03:14:35.089Z,9.07
2022-10-10T03:17:03.385Z,9.04
2022-10-10T03:19:31.578Z,9.06
2022-10-10T03:22:01.154Z,9.08
2022-10-10T03:24:29.558Z,9.01
2022-10-10T03:26:57.942Z,8.98
2022-10-10T03:29:26.090Z,9.03
2022-10-10T03:31:54.328Z,9.03
2022-10-10T03:34:22.670Z,9.03
2022-10-10T03:36:50.936Z,8.95
2022-10-10T03:39:20.582Z,8.88
2022-10-10T03:41:50.326Z,8.81
2022-10-10T03:44:19.122Z,8.81
2022-10-10T03:46:49.912Z,8.80
2022-10-10T03:49:18.120Z,8.81
2022-10-10T03:51:46.362Z,8.77
2022-10-10T03:54:14.587Z,8.76
2022-10-10T03:56:44.227Z,8.74
2022-10-10T03:59:12.570Z,8.78
2022-10-10T04:01:41.052Z,8.74
2022-10-10T04:04:09.270Z,8.78
2022-10-10T04:06:37.505Z,8.79
2022-10-10T04:09:05.670Z,8.76
2022-10-10T04:11:35.204Z,8.68
2022-10-10T04:14:04.866Z,8.62
2022-10-10T04:16:33.086Z,8.70
2022-10-10T04:19:01.624Z,8.65
2022-10-10T04:21:29.782Z,8.72
2022-10-10T04:23:58.358Z,8.68
2022-10-10T04:26:26.670Z,8.76
2022-10-10T04:28:54.907Z,8.73
2022-10-10T04:31:25.028Z,8.72
2022-10-10T04:33:53.488Z,8.77
2022-10-10T04:36:21.616Z,8.73
2022-10-10T04:38:49.854Z,8.76
2022-10-10T04:41:18.152Z,8.73
2022-10-10T04:43:46.430Z,8.71
2022-10-10T04:46:14.648Z,8.73
2022-10-10T04:48:44.301Z,8.76
2022-10-10T04:51:12.733Z,8.80
2022-10-10T04:53:41.026Z,8.88
2022-10-10T04:56:09.260Z,8.89
2022-10-10T04:58:37.442Z,8.89
2022-10-10T05:01:05.965Z,8.89
2022-10-10T05:03:34.203Z,8.94
2022-10-10T05:06:03.916Z,8.95
2022-10-10T05:08:32.023Z,8.93
2022-10-10T05:11:00.366Z,9.02
2022-10-10T05:13:28.701Z,8.97
2022-10-10T05:15:56.790Z,8.95
2022-10-10T05:18:25.014Z,8.93
2022-10-10T05:20:53.223Z,8.91
2022-10-10T05:23:22.918Z,8.96
2022-10-10T05:25:52.151Z,8.96
2022-10-10T05:28:20.526Z,8.90
2022-10-10T05:30:48.796Z,8.88
2022-10-10T05:33:16.950Z,8.93
2022-10-10T05:35:45.226Z,8.90
2022-10-10T05:38:13.396Z,8.93
2022-10-10T05:40:43.536Z,8.91
2022-10-10T05:43:11.831Z,8.95
2022-10-10T05:45:39.972Z,8.97
2022-10-10T05:48:08.102Z,9.01
2022-10-10T05:50:39.561Z,8.97
2022-10-10T05:53:07.890Z,9.00
2022-10-10T05:55:36.716Z,9.01
2022-10-10T05:58:06.361Z,9.02
2022-10-10T06:00:36.494Z,9.06
2022-10-10T06:03:04.847Z,9.01
2022-10-10T06:05:33.026Z,9.03
2022-10-10T06:08:09.327Z,9.07
2022-10-10T06:10:41.949Z,9.14
2022-10-10T06:13:11.971Z,9.17
2022-10-10T06:15:40.385Z,9.19
2022-10-10T06:18:09.087Z,9.25
2022-10-10T06:20:38.220Z,9.30
2022-10-10T06:23:07.297Z,9.36
2022-10-10T06:25:41.600Z,9.37
2022-10-10T06:28:11.994Z,9.40
2022-10-10T06:30:43.874Z,9.46
2022-10-10T06:33:13.491Z,9.44
2022-10-10T06:35:42.771Z,9.52
2022-10-10T06:38:11.760Z,9.51
2022-10-10T06:40:40.128Z,9.55
2022-10-10T06:43:11.763Z,9.60
2022-10-10T06:45:42.406Z,9.64
2022-10-10T06:48:11.736Z,9.66
2022-10-10T06:50:40.478Z,9.66
2022-10-10T06:53:08.881Z,9.68
2022-10-10T06:55:37.233Z,9.74
2022-10-10T06:58:05.431Z,9.78
2022-10-10T07:00:33.639Z,9.84
2022-10-10T07:03:03.217Z,9.91
2022-10-10T07:05:31.386Z,9.91
2022-10-10T07:07:59.589Z,9.94
2022-10-10T07:10:27.818Z,9.98
2022-10-10T07:12:56.475Z,9.97
2022-10-10T07:15:25.033Z,9.99
2022-10-10T07:17:59.349Z,10.03
2022-10-10T07:20:28.972Z,10.09
2022-10-10T07:22:57.512Z,10.15
2022-10-10T07:25:25.851Z,10.22
2022-10-10T07:27:54.334Z,10.26
2022-10-10T07:30:22.640Z,10.39
2022-10-10T07:32:53.292Z,10.48
2022-10-10T07:35:21.824Z,10.57
2022-10-10T07:37:54.964Z,10.63
2022-10-10T07:40:23.410Z,10.69
2022-10-10T07:42:52.097Z,10.72
2022-10-10T07:45:20.643Z,10.80
2022-10-10T07:47:49.163Z,10.85
2022-10-10T07:50:17.716Z,10.89
2022-10-10T07:52:45.945Z,10.85
2022-10-10T07:55:15.725Z,10.97
2022-10-10T07:57:43.979Z,11.14
2022-10-10T08:00:15.350Z,11.33
2022-10-10T08:02:43.658Z,11.57
2022-10-10T08:05:12.763Z,11.72
2022-10-10T08:07:41.214Z,11.92
2022-10-10T08:10:10.739Z,12.13
2022-10-10T08:12:40.482Z,12.35
2022-10-10T08:15:09.745Z,12.52
2022-10-10T08:17:38.148Z,12.72
2022-10-10T08:20:07.554Z,12.69
2022-10-10T08:22:35.816Z,12.59
2022-10-10T08:25:03.991Z,12.50
2022-10-10T08:27:32.199Z,12.48
2022-10-10T08:30:01.957Z,12.41
2022-10-10T08:32:30.168Z,12.47
2022-10-10T08:34:58.798Z,12.45
2022-10-10T08:37:30.423Z,12.51
2022-10-10T08:39:59.955Z,12.52
2022-10-10T08:42:34.095Z,12.49
2022-10-10T08:45:11.051Z,12.55
2022-10-10T08:47:52.329Z,12.52
2022-10-10T08:50:25.195Z,12.58
2022-10-10T08:52:58.657Z,12.65
2022-10-10T08:55:33.500Z,12.75
2022-10-10T08:58:07.620Z,12.81
2022-10-10T09:00:43.583Z,13.00
2022-10-10T09:03:21.378Z,13.06
2022-10-10T09:06:02.205Z,13.19
2022-10-10T09:08:43.654Z,13.19
2022-10-10T09:11:23.306Z,13.36
2022-10-10T09:14:01.759Z,13.49
2022-10-10T09:16:40.044Z,13.73
2022-10-10T09:19:24.394Z,13.73
2022-10-10T09:21:59.722Z,13.77
2022-10-10T09:24:33.529Z,14.12
2022-10-10T09:27:05.020Z,14.29
2022-10-10T09:29:39.936Z,14.24
2022-10-10T09:32:15.211Z,14.09
2022-10-10T09:34:47.780Z,14.03
2022-10-10T09:37:35.326Z,14.08
2022-10-10T09:40:15.906Z,14.24
2022-10-10T09:42:45.301Z,14.43
2022-10-10T09:45:18.288Z,14.68
2022-10-10T09:47:49.654Z,15.17
2022-10-10T09:50:18.393Z,15.58
2022-10-10T09:52:48.129Z,15.60
2022-10-10T09:55:24.782Z,15.59
2022-10-10T09:57:55.207Z,15.68
2022-10-10T10:00:29.077Z,15.55
2022-10-10T10:03:13.607Z,15.70
2022-10-10T10:05:45.031Z,15.75
2022-10-10T10:08:23.237Z,15.86
2022-10-10T10:10:51.756Z,15.96
2022-10-10T10:13:26.010Z,16.00
2022-10-10T10:16:04.068Z,16.12
2022-10-10T10:18:39.871Z,16.17
2022-10-10T10:21:16.358Z,16.46
2022-10-10T10:23:50.439Z,16.47
2022-10-10T10:26:22.627Z,16.52
2022-10-10T10:28:52.821Z,16.60
2022-10-10T10:31:48.305Z,16.64
2022-10-10T10:35:07.525Z,16.50
2022-10-10T10:37:46.931Z,16.30
2022-10-10T10:40:35.575Z,16.22
2022-10-10T10:43:26.238Z,15.95
2022-10-10T10:46:04.245Z,16.01
2022-10-10T10:48:42.043Z,16.56
2022-10-10T10:51:29.115Z,17.00
2022-10-10T10:54:08.680Z,17.08
2022-10-10T10:56:42.578Z,17.35
2022-10-10T11:00:16.689Z,17.55
2022-10-10T11:02:54.936Z,17.72
2022-10-10T11:05:41.283Z,17.95
2022-10-10T11:08:36.966Z,18.07
2022-10-10T11:11:32.357Z,17.90
2022-10-10T11:14:08.326Z,17.69
2022-10-10T11:16:48.502Z,17.39
2022-10-10T11:19:26.544Z,17.26
2022-10-10T11:21:59.486Z,17.46
2022-10-10T11:24:37.485Z,17.52
2022-10-10T11:27:12.583Z,17.82
2022-10-10T11:29:52.167Z,17.89
2022-10-10T11:32:27.163Z,17.95
2022-10-10T11:35:07.084Z,18.05
2022-10-10T11:37:41.171Z,18.13
2022-10-10T11:40:27.398Z,18.30
2022-10-10T11:43:02.219Z,18.26
2022-10-10T11:45:35.572Z,18.18
2022-10-10T11:48:14.426Z,18.09
2022-10-10T11:50:44.503Z,17.93
2022-10-10T11:53:21.691Z,17.73
2022-10-10T11:55:56.086Z,17.55
2022-10-10T11:58:34.892Z,17.29
2022-10-10T12:01:08.083Z,17.09
2022-10-10T12:03:36.363Z,17.00
2022-10-10T12:06:13.549Z,16.91
2022-10-10T12:08:46.639Z,16.88
2022-10-10T12:11:19.991Z,16.82
2022-10-10T12:13:55.133Z,16.82
2022-10-10T12:16:30.537Z,16.70
2022-10-10T12:19:03.548Z,16.58
2022-10-10T12:21:32.962Z,16.48
2022-10-10T12:24:05.759Z,16.49
2022-10-10T12:27:11.389Z,16.45
2022-10-10T12:29:50.922Z,16.33
2022-10-10T12:32:28.171Z,16.24
2022-10-10T12:35:01.753Z,16.17
2022-10-10T12:37:31.236Z,16.17
2022-10-10T12:40:21.509Z,16.24
2022-10-10T12:43:05.453Z,16.64
2022-10-10T12:46:09.313Z,16.84
2022-10-10T12:48:38.000Z,17.00
2022-10-10T12:51:06.943Z,16.92
2022-10-10T12:53:36.185Z,16.82
2022-10-10T12:56:05.024Z,16.75
2022-10-10T12:58:36.148Z,16.60
2022-10-10T13:01:09.578Z,16.45
2022-10-10T13:03:41.224Z,16.37
2022-10-10T13:06:19.112Z,16.44
2022-10-10T13:08:50.034Z,16.61
2022-10-10T13:11:18.264Z,16.99
2022-10-10T13:13:51.981Z,17.20
2022-10-10T13:16:23.138Z,17.14
2022-10-10T13:18:53.564Z,16.94
2022-10-10T13:21:24.914Z,16.87
2022-10-10T13:26:48.002Z,16.46
2022-10-10T13:29:29.095Z,16.37
2022-10-10T13:32:03.060Z,16.36
2022-10-10T13:34:35.239Z,16.26
2022-10-10T13:37:07.856Z,16.07
2022-10-10T13:39:38.724Z,15.82
2022-10-10T13:42:08.645Z,15.58
2022-10-10T13:44:50.355Z,15.36
2022-10-10T13:47:43.303Z,15.27
2022-10-10T13:50:20.449Z,15.12
2022-10-10T13:52:48.745Z,15.11
2022-10-10T13:55:23.468Z,15.03
2022-10-10T13:57:52.298Z,14.94
2022-10-10T14:00:22.773Z,14.99
2022-10-10T14:02:52.494Z,14.98
2022-10-10T14:05:27.712Z,14.87
2022-10-10T14:07:56.515Z,14.81
2022-10-10T14:10:26.468Z,14.78
2022-10-10T14:12:57.478Z,14.74
2022-10-10T14:15:37.728Z,14.66
2022-10-10T14:18:17.321Z,14.56
2022-10-10T14:20:46.087Z,14.48
2022-10-10T14:23:14.752Z,14.37
2022-10-10T14:25:45.060Z,14.27
2022-10-10T14:28:17.797Z,14.10
2022-10-10T14:30:45.990Z,14.07
2022-10-10T14:33:17.443Z,13.93
2022-10-10T14:35:47.038Z,13.82
2022-10-10T14:38:16.159Z,13.78
2022-10-10T14:40:46.284Z,13.74
2022-10-10T14:43:15.298Z,13.58
2022-10-10T14:45:43.597Z,13.52
2022-10-10T14:48:12.997Z,13.41
2022-10-10T14:50:45.000Z,13.33
2022-10-10T14:53:13.473Z,13.30
2022-10-10T14:55:43.437Z,13.24
2022-10-10T14:58:16.139Z,13.27
2022-10-10T15:00:44.851Z,13.25
2022-10-10T15:03:13.225Z,13.24
2022-10-10T15:05:43.087Z,13.33
2022-10-10T15:08:14.662Z,13.30
2022-10-10T15:10:42.874Z,13.25
2022-10-10T15:13:11.954Z,13.17
2022-10-10T15:15:40.487Z,13.15
2022-10-10T15:18:25.667Z,13.06
2022-10-10T15:21:00.095Z,13.07
2022-10-10T15:23:28.428Z,13.08
2022-10-10T15:26:00.525Z,13.10
2022-10-10T15:28:28.753Z,13.08
2022-10-10T15:30:57.379Z,13.06
2022-10-10T15:33:26.100Z,13.01
2022-10-10T15:36:09.650Z,13.01
2022-10-10T15:38:38.708Z,13.07
2022-10-10T15:41:08.970Z,13.12
2022-10-10T15:43:47.040Z,13.09
2022-10-10T15:46:15.208Z,13.11
2022-10-10T15:48:43.452Z,13.09
2022-10-10T15:51:13.219Z,13.10
2022-10-10T15:53:41.556Z,13.15
2022-10-10T15:56:10.832Z,13.18
2022-10-10T15:58:40.985Z,13.12
2022-10-10T16:01:14.587Z,13.09
2022-10-10T16:03:43.237Z,13.07
2022-10-10T16:06:13.268Z,13.09
2022-10-10T16:08:41.463Z,13.04
2022-10-10T16:11:11.719Z,13.07
2022-10-10T16:13:40.978Z,13.02
2022-10-10T16:16:12.325Z,13.08
2022-10-10T16:18:42.345Z,13.10
2022-10-10T16:21:14.408Z,13.08
2022-10-10T16:23:42.774Z,13.06
2022-10-10T16:26:15.289Z,12.99
2022-10-10T16:28:43.818Z,12.88
2022-10-10T16:31:14.379Z,12.84
2022-10-10T16:33:43.395Z,12.76
2022-10-10T16:36:15.112Z,12.71
2022-10-10T16:38:43.537Z,12.64
2022-10-10T16:41:35.234Z,12.57
2022-10-10T16:44:02.576Z,12.37
2022-10-10T16:46:30.931Z,12.27
2022-10-10T16:49:00.544Z,12.16
2022-10-10T16:51:30.883Z,12.14
2022-10-10T16:54:02.776Z,11.99
2022-10-10T16:56:31.183Z,11.86
2022-10-10T16:59:00.611Z,11.84
2022-10-10T17:01:29.162Z,11.76
2022-10-10T17:03:59.979Z,11.75
2022-10-10T17:06:35.345Z,11.69
2022-10-10T17:09:05.719Z,11.59
2022-10-10T17:11:34.532Z,11.53
2022-10-10T17:14:02.942Z,11.40
2022-10-10T17:17:07.115Z,11.31
2022-10-10T17:19:19.754Z,11.23
2022-10-10T17:21:49.251Z,11.19
2022-10-10T17:24:17.760Z,11.16
2022-10-10T17:26:45.923Z,11.09
2022-10-10T17:29:14.349Z,10.97
2022-10-10T17:31:42.737Z,10.93
2022-10-10T17:34:10.935Z,10.81
2022-10-10T17:36:39.133Z,10.69
2022-10-10T17:39:08.771Z,10.63
2022-10-10T17:41:36.956Z,10.56
2022-10-10T17:44:05.831Z,10.52
2022-10-10T17:46:36.252Z,10.45
2022-10-10T17:49:06.362Z,10.38
2022-10-10T17:51:35.771Z,10.28
2022-10-10T17:54:06.427Z,10.26
2022-10-10T17:56:36.180Z,10.16
2022-10-10T17:59:06.672Z,10.10
2022-10-10T18:01:36.114Z,10.04
2022-10-10T18:04:05.112Z,9.95
2022-10-10T18:06:33.968Z,9.89
2022-10-10T18:09:02.337Z,9.81
2022-10-10T18:11:32.038Z,9.70
2022-10-10T18:14:01.789Z,9.67
2022-10-10T18:16:33.766Z,9.62
2022-10-10T18:19:03.397Z,9.63
2022-10-10T18:21:31.619Z,9.59
2022-10-10T18:24:00.706Z,9.60
2022-10-10T18:26:31.187Z,9.47
2022-10-10T18:29:01.420Z,9.45
2022-10-10T18:31:33.073Z,9.41
2022-10-10T18:34:01.908Z,9.32
2022-10-10T18:36:32.566Z,9.26
2022-10-10T18:39:02.314Z,9.23
2022-10-10T18:41:34.222Z,9.27
2022-10-10T18:44:05.644Z,9.27
2022-10-10T18:46:34.334Z,9.32
2022-10-10T18:49:02.947Z,9.26
2022-10-10T18:51:32.022Z,9.18
2022-10-10T18:54:03.505Z,9.07
2022-10-10T18:56:33.309Z,9.06
2022-10-10T18:59:05.960Z,8.97
2022-10-10T19:01:36.964Z,9.02
2022-10-10T19:04:07.204Z,9.06
2022-10-10T19:06:36.712Z,9.10
2022-10-10T19:09:07.424Z,9.08
2022-10-10T19:11:39.285Z,8.95
2022-10-10T19:14:11.113Z,8.96
2022-10-10T19:16:39.677Z,8.94
2022-10-10T19:19:07.962Z,8.86
2022-10-10T19:21:38.333Z,8.86
2022-10-10T19:24:08.907Z,8.75
2022-10-10T19:26:37.807Z,8.74
2022-10-10T19:29:09.499Z,8.78
2022-10-10T19:31:38.231Z,8.80
2022-10-10T19:34:06.757Z,8.87
2022-10-10T19:36:38.505Z,8.76
2022-10-10T19:39:08.781Z,8.71
2022-10-10T19:41:37.327Z,8.68
2022-10-10T19:44:06.031Z,8.61
2022-10-10T19:46:37.414Z,8.51
2022-10-10T19:49:06.355Z,8.51
2022-10-10T19:51:34.643Z,8.49
2022-10-10T19:54:02.812Z,8.46
2022-10-10T19:56:31.044Z,8.48
2022-10-10T19:59:01.118Z,8.46
2022-10-10T20:01:30.963Z,8.42
2022-10-10T20:04:00.727Z,8.41
2022-10-10T20:06:29.139Z,8.35
2022-10-10T20:08:57.643Z,8.32
2022-10-10T20:11:26.464Z,8.29
2022-10-10T20:13:55.743Z,8.29
2022-10-10T20:16:26.618Z,8.27
2022-10-10T20:18:56.345Z,8.24
2022-10-10T20:21:29.313Z,8.29
2022-10-10T20:23:58.365Z,8.39
2022-10-10T20:26:26.850Z,8.29
2022-10-10T20:28:56.069Z,8.32
2022-10-10T20:31:26.716Z,8.32
2022-10-10T20:33:57.071Z,8.23
2022-10-10T20:36:27.729Z,8.20
2022-10-10T20:38:57.766Z,8.11
2022-10-10T20:41:28.017Z,8.01
2022-10-10T20:43:58.207Z,7.99
2022-10-10T20:46:27.690Z,8.01
2022-10-10T20:48:56.188Z,7.99
2022-10-10T20:51:26.970Z,8.00
2022-10-10T20:53:57.483Z,8.03
2022-10-10T20:56:26.746Z,7.99
2022-10-10T20:58:55.320Z,8.00
2022-10-10T21:01:25.728Z,7.92
2022-10-10T21:03:54.160Z,7.92
2022-10-10T21:06:25.578Z,7.86
2022-10-10T21:08:56.170Z,7.83
2022-10-10T21:11:25.007Z,7.79
2022-10-10T21:13:56.517Z,7.71
2022-10-10T21:16:26.255Z,7.81
2022-10-10T21:18:57.873Z,7.91
2022-10-10T21:21:27.094Z,7.81
2022-10-10T21:23:59.201Z,7.85
2022-10-10T21:26:28.930Z,7.72
2022-10-10T21:28:58.790Z,7.64
2022-10-10T21:31:30.333Z,7.57
2022-10-10T21:34:00.313Z,7.62
2022-10-10T21:36:28.621Z,7.65
2022-10-10T21:38:59.225Z,7.60
2022-10-10T21:41:27.724Z,7.53
2022-10-10T21:43:58.058Z,7.54
2022-10-10T21:46:34.769Z,7.53
2022-10-10T21:49:06.742Z,7.58
2022-10-10T21:51:37.255Z,7.50
2022-10-10T21:54:07.938Z,7.50
2022-10-10T21:56:36.940Z,7.50
2022-10-10T21:59:05.365Z,7.44
2022-10-10T22:01:33.673Z,7.45
2022-10-10T22:04:03.079Z,7.60
2022-10-10T22:06:32.019Z,7.52
2022-10-10T22:09:02.148Z,7.53
2022-10-10T22:11:34.322Z,7.43
2022-10-10T22:14:03.481Z,7.45
2022-10-10T22:16:32.506Z,7.35
2022-10-10T22:19:01.194Z,7.27
2022-10-10T22:21:31.945Z,7.23
2022-10-10T22:24:02.555Z,7.22
2022-10-10T22:26:33.744Z,7.26
2022-10-10T22:29:02.047Z,7.19
2022-10-10T22:31:30.459Z,7.12
2022-10-10T22:33:58.871Z,7.09
2022-10-10T22:36:27.335Z,7.08
2022-10-10T22:38:55.566Z,7.07
2022-10-10T22:41:23.971Z,7.08
2022-10-10T22:43:54.213Z,7.10
2022-10-10T22:46:22.369Z,7.08
2022-10-10T22:48:50.759Z,7.19
2022-10-10T22:51:19.278Z,7.25
2022-10-10T22:53:49.295Z,7.20
2022-10-10T22:56:20.868Z,7.18
2022-10-10T22:58:49.940Z,7.19
2022-10-10T23:01:21.665Z,7.05
2022-10-10T23:03:49.994Z,7.04
2022-10-10T23:06:18.647Z,6.95
2022-10-10T23:08:46.795Z,6.90
2022-10-10T23:11:14.964Z,6.88
2022-10-10T23:13:43.195Z,6.89
2022-10-10T23:16:12.747Z,6.91
2022-10-10T23:18:44.770Z,6.86
2022-10-10T23:21:13.006Z,6.80
2022-10-10T23:23:41.389Z,6.76
2022-10-10T23:26:10.303Z,6.84
2022-10-10T23:28:39.424Z,6.85
2022-10-10T23:31:09.792Z,6.91
2022-10-10T23:33:38.537Z,6.87
2022-10-10T23:36:11.576Z,6.85
2022-10-10T23:38:40.789Z,6.75
2022-10-10T23:41:11.659Z,6.80
2022-10-10T23:43:39.903Z,6.88
2022-10-10T23:46:08.962Z,6.89
2022-10-10T23:48:37.415Z,6.74
2022-10-10T23:51:06.391Z,6.73
2022-10-10T23:53:36.508Z,6.75
2022-10-10T23:56:05.307Z,6.72
2022-10-10T23:58:52.963Z,6.78
